sensor_id;sensor_type;location;lat;lon;timestamp;P1;durP1;ratioP1;P2;durP2;ratioP2
75280;SDS011;63874;47.230;39.620;2023-03-19T00:02:15;59.33;;;16.77;;
75280;SDS011;63874;47.230;39.620;2023-03-19T00:04:41;51.22;;;16.23;;
75280;SDS011;63874;47.230;39.620;2023-03-19T00:07:07;65.28;;;18.25;;
75280;SDS011;63874;47.230;39.620;2023-03-19T00:09:33;49.80;;;15.60;;
75280;SDS011;63874;47.230;39.620;2023-03-19T00:11:59;56.72;;;16.92;;
75280;SDS011;63874;47.230;39.620;2023-03-19T00:14:25;56.15;;;15.07;;
75280;SDS011;63874;47.230;39.620;2023-03-19T00:16:51;68.15;;;18.73;;
75280;SDS011;63874;47.230;39.620;2023-03-19T00:19:17;58.33;;;17.65;;
75280;SDS011;63874;47.230;39.620;2023-03-19T00:21:43;70.80;;;18.35;;
75280;SDS011;63874;47.230;39.620;2023-03-19T00:24:08;70.13;;;20.02;;
75280;SDS011;63874;47.230;39.620;2023-03-19T00:26:35;76.00;;;20.50;;
75280;SDS011;63874;47.230;39.620;2023-03-19T00:29:01;61.00;;;18.15;;
75280;SDS011;63874;47.230;39.620;2023-03-19T00:31:28;50.33;;;16.25;;
75280;SDS011;63874;47.230;39.620;2023-03-19T00:33:57;72.10;;;20.55;;
75280;SDS011;63874;47.230;39.620;2023-03-19T00:36:24;53.92;;;13.88;;
75280;SDS011;63874;47.230;39.620;2023-03-19T00:38:51;47.92;;;14.65;;
75280;SDS011;63874;47.230;39.620;2023-03-19T00:41:17;87.95;;;20.08;;
75280;SDS011;63874;47.230;39.620;2023-03-19T00:43:45;79.53;;;23.02;;
75280;SDS011;63874;47.230;39.620;2023-03-19T00:46:11;57.60;;;16.80;;
75280;SDS011;63874;47.230;39.620;2023-03-19T00:48:42;62.60;;;17.13;;
75280;SDS011;63874;47.230;39.620;2023-03-19T00:51:08;71.22;;;18.40;;
75280;SDS011;63874;47.230;39.620;2023-03-19T00:53:39;92.07;;;23.33;;
75280;SDS011;63874;47.230;39.620;2023-03-19T00:56:07;74.95;;;17.92;;
75280;SDS011;63874;47.230;39.620;2023-03-19T00:58:34;74.60;;;20.50;;
75280;SDS011;63874;47.230;39.620;2023-03-19T01:01:03;83.65;;;21.98;;
75280;SDS011;63874;47.230;39.620;2023-03-19T01:03:30;97.90;;;23.60;;
75280;SDS011;63874;47.230;39.620;2023-03-19T01:05:59;85.35;;;24.08;;
75280;SDS011;63874;47.230;39.620;2023-03-19T01:08:25;77.55;;;21.95;;
75280;SDS011;63874;47.230;39.620;2023-03-19T01:10:51;77.35;;;22.27;;
75280;SDS011;63874;47.230;39.620;2023-03-19T01:13:18;68.70;;;20.67;;
75280;SDS011;63874;47.230;39.620;2023-03-19T01:15:44;104.32;;;26.30;;
75280;SDS011;63874;47.230;39.620;2023-03-19T01:18:10;67.72;;;17.90;;
75280;SDS011;63874;47.230;39.620;2023-03-19T01:20:37;79.18;;;21.95;;
75280;SDS011;63874;47.230;39.620;2023-03-19T01:23:05;97.32;;;22.42;;
75280;SDS011;63874;47.230;39.620;2023-03-19T01:25:32;71.93;;;18.15;;
75280;SDS011;63874;47.230;39.620;2023-03-19T01:28:03;61.88;;;16.15;;
75280;SDS011;63874;47.230;39.620;2023-03-19T01:30:32;73.20;;;18.95;;
75280;SDS011;63874;47.230;39.620;2023-03-19T01:33:17;62.38;;;15.27;;
75280;SDS011;63874;47.230;39.620;2023-03-19T01:36:09;60.55;;;18.50;;
75280;SDS011;63874;47.230;39.620;2023-03-19T01:38:54;93.90;;;24.83;;
75280;SDS011;63874;47.230;39.620;2023-03-19T01:41:21;87.65;;;22.90;;
75280;SDS011;63874;47.230;39.620;2023-03-19T01:43:48;97.57;;;24.02;;
75280;SDS011;63874;47.230;39.620;2023-03-19T01:46:34;74.68;;;19.67;;
75280;SDS011;63874;47.230;39.620;2023-03-19T01:49:34;69.25;;;18.27;;
75280;SDS011;63874;47.230;39.620;2023-03-19T01:52:17;68.43;;;18.08;;
75280;SDS011;63874;47.230;39.620;2023-03-19T01:55:03;97.75;;;26.15;;
75280;SDS011;63874;47.230;39.620;2023-03-19T01:58:04;68.15;;;18.02;;
75280;SDS011;63874;47.230;39.620;2023-03-19T02:00:57;80.35;;;21.02;;
75280;SDS011;63874;47.230;39.620;2023-03-19T02:03:23;74.78;;;16.67;;
75280;SDS011;63874;47.230;39.620;2023-03-19T02:06:12;87.75;;;23.30;;
75280;SDS011;63874;47.230;39.620;2023-03-19T02:08:38;65.93;;;18.80;;
75280;SDS011;63874;47.230;39.620;2023-03-19T02:11:06;95.70;;;25.35;;
75280;SDS011;63874;47.230;39.620;2023-03-19T02:13:33;79.35;;;19.35;;
75280;SDS011;63874;47.230;39.620;2023-03-19T02:15:59;86.25;;;22.55;;
75280;SDS011;63874;47.230;39.620;2023-03-19T02:18:25;97.10;;;25.80;;
75280;SDS011;63874;47.230;39.620;2023-03-19T02:21:10;83.30;;;23.60;;
75280;SDS011;63874;47.230;39.620;2023-03-19T02:26:46;76.82;;;22.10;;
75280;SDS011;63874;47.230;39.620;2023-03-19T02:29:12;83.90;;;21.58;;
75280;SDS011;63874;47.230;39.620;2023-03-19T02:31:38;85.07;;;25.00;;
75280;SDS011;63874;47.230;39.620;2023-03-19T02:34:50;85.22;;;22.85;;
75280;SDS011;63874;47.230;39.620;2023-03-19T02:36:52;73.13;;;18.75;;
75280;SDS011;63874;47.230;39.620;2023-03-19T02:42:33;80.38;;;22.10;;
75280;SDS011;63874;47.230;39.620;2023-03-19T02:45:00;99.80;;;25.83;;
75280;SDS011;63874;47.230;39.620;2023-03-19T02:47:26;111.85;;;23.25;;
75280;SDS011;63874;47.230;39.620;2023-03-19T02:49:52;79.78;;;21.60;;
75280;SDS011;63874;47.230;39.620;2023-03-19T02:52:18;79.82;;;20.17;;
75280;SDS011;63874;47.230;39.620;2023-03-19T02:54:44;78.18;;;21.95;;
75280;SDS011;63874;47.230;39.620;2023-03-19T02:57:11;78.15;;;19.20;;
75280;SDS011;63874;47.230;39.620;2023-03-19T02:59:37;96.85;;;24.30;;
75280;SDS011;63874;47.230;39.620;2023-03-19T03:02:03;79.95;;;20.55;;
75280;SDS011;63874;47.230;39.620;2023-03-19T03:04:30;91.40;;;23.23;;
75280;SDS011;63874;47.230;39.620;2023-03-19T03:06:56;82.05;;;23.90;;
75280;SDS011;63874;47.230;39.620;2023-03-19T03:09:23;76.35;;;20.45;;
75280;SDS011;63874;47.230;39.620;2023-03-19T03:11:49;84.82;;;24.45;;
75280;SDS011;63874;47.230;39.620;2023-03-19T03:14:15;75.00;;;21.92;;
75280;SDS011;63874;47.230;39.620;2023-03-19T03:16:41;75.47;;;21.08;;
75280;SDS011;63874;47.230;39.620;2023-03-19T03:19:07;86.07;;;21.60;;
75280;SDS011;63874;47.230;39.620;2023-03-19T03:21:33;89.50;;;20.98;;
75280;SDS011;63874;47.230;39.620;2023-03-19T03:24:00;93.32;;;24.85;;
75280;SDS011;63874;47.230;39.620;2023-03-19T03:26:26;100.22;;;25.20;;
75280;SDS011;63874;47.230;39.620;2023-03-19T03:28:52;79.15;;;21.80;;
75280;SDS011;63874;47.230;39.620;2023-03-19T03:31:18;90.80;;;21.48;;
75280;SDS011;63874;47.230;39.620;2023-03-19T03:33:44;62.42;;;18.67;;
75280;SDS011;63874;47.230;39.620;2023-03-19T03:36:10;84.95;;;23.17;;
75280;SDS011;63874;47.230;39.620;2023-03-19T03:38:36;77.38;;;23.45;;
75280;SDS011;63874;47.230;39.620;2023-03-19T03:41:03;99.30;;;25.75;;
75280;SDS011;63874;47.230;39.620;2023-03-19T03:43:29;87.60;;;29.17;;
75280;SDS011;63874;47.230;39.620;2023-03-19T03:45:55;93.65;;;25.83;;
75280;SDS011;63874;47.230;39.620;2023-03-19T03:48:22;83.68;;;20.83;;
75280;SDS011;63874;47.230;39.620;2023-03-19T03:50:48;85.85;;;24.13;;
75280;SDS011;63874;47.230;39.620;2023-03-19T03:53:19;51.05;;;14.18;;
75280;SDS011;63874;47.230;39.620;2023-03-19T03:55:45;74.05;;;19.27;;
75280;SDS011;63874;47.230;39.620;2023-03-19T03:58:11;78.07;;;20.48;;
75280;SDS011;63874;47.230;39.620;2023-03-19T04:00:38;70.35;;;18.48;;
75280;SDS011;63874;47.230;39.620;2023-03-19T04:03:04;75.97;;;20.42;;
75280;SDS011;63874;47.230;39.620;2023-03-19T04:05:30;83.10;;;22.23;;
75280;SDS011;63874;47.230;39.620;2023-03-19T04:07:56;70.85;;;18.17;;
75280;SDS011;63874;47.230;39.620;2023-03-19T04:10:23;92.43;;;23.77;;
75280;SDS011;63874;47.230;39.620;2023-03-19T04:12:49;71.95;;;18.27;;
75280;SDS011;63874;47.230;39.620;2023-03-19T04:15:15;77.93;;;20.85;;
75280;SDS011;63874;47.230;39.620;2023-03-19T04:17:43;74.63;;;20.65;;
75280;SDS011;63874;47.230;39.620;2023-03-19T04:20:10;76.53;;;21.38;;
75280;SDS011;63874;47.230;39.620;2023-03-19T04:22:36;94.45;;;23.95;;
75280;SDS011;63874;47.230;39.620;2023-03-19T04:25:03;94.10;;;22.92;;
75280;SDS011;63874;47.230;39.620;2023-03-19T04:27:33;81.00;;;19.85;;
75280;SDS011;63874;47.230;39.620;2023-03-19T04:29:59;93.20;;;24.88;;
75280;SDS011;63874;47.230;39.620;2023-03-19T04:32:25;87.07;;;22.08;;
75280;SDS011;63874;47.230;39.620;2023-03-19T04:34:52;70.57;;;18.92;;
75280;SDS011;63874;47.230;39.620;2023-03-19T04:37:18;46.05;;;14.75;;
75280;SDS011;63874;47.230;39.620;2023-03-19T04:39:47;56.25;;;15.35;;
75280;SDS011;63874;47.230;39.620;2023-03-19T04:42:13;78.85;;;18.25;;
75280;SDS011;63874;47.230;39.620;2023-03-19T04:44:47;75.57;;;18.23;;
75280;SDS011;63874;47.230;39.620;2023-03-19T04:47:14;75.40;;;18.95;;
75280;SDS011;63874;47.230;39.620;2023-03-19T04:49:53;69.50;;;19.70;;
75280;SDS011;63874;47.230;39.620;2023-03-19T04:52:21;83.38;;;20.23;;
75280;SDS011;63874;47.230;39.620;2023-03-19T04:54:48;70.00;;;17.58;;
75280;SDS011;63874;47.230;39.620;2023-03-19T04:57:14;69.10;;;17.60;;
75280;SDS011;63874;47.230;39.620;2023-03-19T04:59:42;82.60;;;20.77;;
75280;SDS011;63874;47.230;39.620;2023-03-19T05:02:11;66.40;;;18.83;;
75280;SDS011;63874;47.230;39.620;2023-03-19T05:04:38;77.13;;;20.80;;
75280;SDS011;63874;47.230;39.620;2023-03-19T05:07:08;74.40;;;21.70;;
75280;SDS011;63874;47.230;39.620;2023-03-19T05:09:35;81.05;;;21.63;;
75280;SDS011;63874;47.230;39.620;2023-03-19T05:12:01;87.60;;;22.80;;
75280;SDS011;63874;47.230;39.620;2023-03-19T05:14:30;79.22;;;20.52;;
75280;SDS011;63874;47.230;39.620;2023-03-19T05:17:22;82.40;;;20.33;;
75280;SDS011;63874;47.230;39.620;2023-03-19T05:20:05;75.68;;;17.98;;
75280;SDS011;63874;47.230;39.620;2023-03-19T05:22:34;69.10;;;18.27;;
75280;SDS011;63874;47.230;39.620;2023-03-19T05:25:00;67.78;;;17.58;;
75280;SDS011;63874;47.230;39.620;2023-03-19T05:27:28;94.85;;;23.17;;
75280;SDS011;63874;47.230;39.620;2023-03-19T05:30:04;73.72;;;19.98;;
75280;SDS011;63874;47.230;39.620;2023-03-19T05:32:46;65.65;;;20.38;;
75280;SDS011;63874;47.230;39.620;2023-03-19T05:35:23;68.43;;;18.45;;
75280;SDS011;63874;47.230;39.620;2023-03-19T05:37:50;73.78;;;17.58;;
75280;SDS011;63874;47.230;39.620;2023-03-19T05:40:16;64.47;;;16.52;;
75280;SDS011;63874;47.230;39.620;2023-03-19T05:42:44;71.03;;;18.40;;
75280;SDS011;63874;47.230;39.620;2023-03-19T05:45:12;65.88;;;17.42;;
75280;SDS011;63874;47.230;39.620;2023-03-19T05:47:45;76.40;;;16.13;;
75280;SDS011;63874;47.230;39.620;2023-03-19T05:50:13;74.70;;;17.92;;
75280;SDS011;63874;47.230;39.620;2023-03-19T05:52:49;78.40;;;20.65;;
75280;SDS011;63874;47.230;39.620;2023-03-19T05:55:15;64.25;;;18.10;;
75280;SDS011;63874;47.230;39.620;2023-03-19T05:57:48;73.43;;;18.80;;
75280;SDS011;63874;47.230;39.620;2023-03-19T06:00:18;81.85;;;20.75;;
75280;SDS011;63874;47.230;39.620;2023-03-19T06:02:45;69.82;;;19.73;;
75280;SDS011;63874;47.230;39.620;2023-03-19T06:05:20;87.15;;;23.55;;
75280;SDS011;63874;47.230;39.620;2023-03-19T06:07:47;80.07;;;21.40;;
75280;SDS011;63874;47.230;39.620;2023-03-19T06:10:23;84.10;;;20.35;;
75280;SDS011;63874;47.230;39.620;2023-03-19T06:12:52;68.63;;;18.08;;
75280;SDS011;63874;47.230;39.620;2023-03-19T06:15:18;91.95;;;24.85;;
75280;SDS011;63874;47.230;39.620;2023-03-19T06:18:03;99.57;;;23.58;;
75280;SDS011;63874;47.230;39.620;2023-03-19T06:20:29;71.32;;;20.15;;
75280;SDS011;63874;47.230;39.620;2023-03-19T06:22:56;66.82;;;17.85;;
75280;SDS011;63874;47.230;39.620;2023-03-19T06:25:22;72.80;;;20.35;;
75280;SDS011;63874;47.230;39.620;2023-03-19T06:27:49;80.25;;;19.67;;
75280;SDS011;63874;47.230;39.620;2023-03-19T06:30:23;62.50;;;17.60;;
75280;SDS011;63874;47.230;39.620;2023-03-19T06:32:50;71.72;;;19.42;;
75280;SDS011;63874;47.230;39.620;2023-03-19T06:35:17;94.57;;;24.08;;
75280;SDS011;63874;47.230;39.620;2023-03-19T06:37:45;71.55;;;21.35;;
75280;SDS011;63874;47.230;39.620;2023-03-19T06:40:11;52.95;;;12.23;;
75280;SDS011;63874;47.230;39.620;2023-03-19T06:42:38;68.00;;;19.05;;
75280;SDS011;63874;47.230;39.620;2023-03-19T06:45:04;82.65;;;19.17;;
75280;SDS011;63874;47.230;39.620;2023-03-19T06:47:31;85.35;;;21.35;;
75280;SDS011;63874;47.230;39.620;2023-03-19T06:49:57;60.08;;;16.40;;
75280;SDS011;63874;47.230;39.620;2023-03-19T06:52:25;78.30;;;19.70;;
75280;SDS011;63874;47.230;39.620;2023-03-19T06:54:51;88.47;;;23.25;;
75280;SDS011;63874;47.230;39.620;2023-03-19T06:57:17;90.57;;;20.88;;
75280;SDS011;63874;47.230;39.620;2023-03-19T06:59:43;87.60;;;22.40;;
75280;SDS011;63874;47.230;39.620;2023-03-19T07:02:12;83.38;;;22.23;;
75280;SDS011;63874;47.230;39.620;2023-03-19T07:04:38;74.95;;;21.83;;
75280;SDS011;63874;47.230;39.620;2023-03-19T07:07:04;78.53;;;20.38;;
75280;SDS011;63874;47.230;39.620;2023-03-19T07:09:30;78.50;;;21.27;;
75280;SDS011;63874;47.230;39.620;2023-03-19T07:11:57;92.25;;;20.02;;
75280;SDS011;63874;47.230;39.620;2023-03-19T07:14:22;86.68;;;23.35;;
75280;SDS011;63874;47.230;39.620;2023-03-19T07:16:49;90.80;;;22.27;;
75280;SDS011;63874;47.230;39.620;2023-03-19T07:19:15;102.57;;;25.98;;
75280;SDS011;63874;47.230;39.620;2023-03-19T07:21:40;78.90;;;22.70;;
75280;SDS011;63874;47.230;39.620;2023-03-19T07:24:06;91.10;;;25.48;;
75280;SDS011;63874;47.230;39.620;2023-03-19T07:26:32;106.60;;;28.48;;
75280;SDS011;63874;47.230;39.620;2023-03-19T07:28:58;88.82;;;21.30;;
75280;SDS011;63874;47.230;39.620;2023-03-19T07:31:24;110.68;;;25.65;;
75280;SDS011;63874;47.230;39.620;2023-03-19T07:33:50;114.25;;;29.83;;
75280;SDS011;63874;47.230;39.620;2023-03-19T07:36:16;104.00;;;25.35;;
75280;SDS011;63874;47.230;39.620;2023-03-19T07:38:42;102.45;;;25.92;;
75280;SDS011;63874;47.230;39.620;2023-03-19T07:41:08;92.30;;;22.75;;
75280;SDS011;63874;47.230;39.620;2023-03-19T07:43:34;101.82;;;25.33;;
75280;SDS011;63874;47.230;39.620;2023-03-19T07:46:00;109.10;;;26.33;;
75280;SDS011;63874;47.230;39.620;2023-03-19T07:48:27;101.85;;;27.38;;
75280;SDS011;63874;47.230;39.620;2023-03-19T07:50:53;97.38;;;24.15;;
75280;SDS011;63874;47.230;39.620;2023-03-19T07:53:19;107.97;;;28.35;;
75280;SDS011;63874;47.230;39.620;2023-03-19T07:55:46;128.75;;;27.25;;
75280;SDS011;63874;47.230;39.620;2023-03-19T07:58:12;100.38;;;30.45;;
75280;SDS011;63874;47.230;39.620;2023-03-19T08:00:39;94.90;;;23.50;;
75280;SDS011;63874;47.230;39.620;2023-03-19T08:03:05;94.28;;;22.50;;
75280;SDS011;63874;47.230;39.620;2023-03-19T08:05:31;76.15;;;14.70;;
75280;SDS011;63874;47.230;39.620;2023-03-19T08:07:56;95.20;;;23.70;;
75280;SDS011;63874;47.230;39.620;2023-03-19T08:10:22;91.72;;;26.10;;
75280;SDS011;63874;47.230;39.620;2023-03-19T08:12:48;106.40;;;26.73;;
75280;SDS011;63874;47.230;39.620;2023-03-19T08:15:14;105.25;;;26.15;;
75280;SDS011;63874;47.230;39.620;2023-03-19T08:17:40;109.18;;;27.65;;
75280;SDS011;63874;47.230;39.620;2023-03-19T08:20:07;99.13;;;26.42;;
75280;SDS011;63874;47.230;39.620;2023-03-19T08:25:04;84.90;;;24.02;;
75280;SDS011;63874;47.230;39.620;2023-03-19T08:27:31;110.03;;;25.25;;
75280;SDS011;63874;47.230;39.620;2023-03-19T08:30:00;89.90;;;25.83;;
75280;SDS011;63874;47.230;39.620;2023-03-19T08:32:28;85.55;;;22.45;;
75280;SDS011;63874;47.230;39.620;2023-03-19T08:34:54;97.28;;;26.65;;
75280;SDS011;63874;47.230;39.620;2023-03-19T08:37:20;93.22;;;27.67;;
75280;SDS011;63874;47.230;39.620;2023-03-19T08:39:48;98.57;;;27.52;;
75280;SDS011;63874;47.230;39.620;2023-03-19T08:42:16;94.90;;;22.65;;
75280;SDS011;63874;47.230;39.620;2023-03-19T08:44:43;104.38;;;26.25;;
75280;SDS011;63874;47.230;39.620;2023-03-19T08:47:09;102.95;;;25.35;;
75280;SDS011;63874;47.230;39.620;2023-03-19T08:49:36;98.30;;;26.10;;
75280;SDS011;63874;47.230;39.620;2023-03-19T08:52:03;113.63;;;31.27;;
75280;SDS011;63874;47.230;39.620;2023-03-19T08:54:29;108.30;;;29.10;;
75280;SDS011;63874;47.230;39.620;2023-03-19T08:56:56;94.53;;;27.13;;
75280;SDS011;63874;47.230;39.620;2023-03-19T08:59:22;121.15;;;33.15;;
75280;SDS011;63874;47.230;39.620;2023-03-19T09:01:51;112.28;;;28.73;;
75280;SDS011;63874;47.230;39.620;2023-03-19T09:04:18;102.05;;;27.45;;
75280;SDS011;63874;47.230;39.620;2023-03-19T09:06:45;125.88;;;29.52;;
75280;SDS011;63874;47.230;39.620;2023-03-19T09:09:15;100.00;;;24.30;;
75280;SDS011;63874;47.230;39.620;2023-03-19T09:11:45;81.45;;;21.80;;
75280;SDS011;63874;47.230;39.620;2023-03-19T09:14:12;105.97;;;28.70;;
75280;SDS011;63874;47.230;39.620;2023-03-19T09:16:38;86.90;;;25.40;;
75280;SDS011;63874;47.230;39.620;2023-03-19T09:19:05;109.88;;;28.98;;
75280;SDS011;63874;47.230;39.620;2023-03-19T09:21:31;107.70;;;26.75;;
75280;SDS011;63874;47.230;39.620;2023-03-19T09:23:57;106.78;;;27.60;;
75280;SDS011;63874;47.230;39.620;2023-03-19T09:26:23;109.97;;;27.38;;
75280;SDS011;63874;47.230;39.620;2023-03-19T09:28:49;100.68;;;24.98;;
75280;SDS011;63874;47.230;39.620;2023-03-19T09:31:15;86.25;;;24.88;;
75280;SDS011;63874;47.230;39.620;2023-03-19T09:33:41;89.05;;;24.92;;
75280;SDS011;63874;47.230;39.620;2023-03-19T09:36:07;70.32;;;22.05;;
75280;SDS011;63874;47.230;39.620;2023-03-19T09:38:33;89.40;;;25.25;;
75280;SDS011;63874;47.230;39.620;2023-03-19T09:44:02;88.53;;;24.40;;
75280;SDS011;63874;47.230;39.620;2023-03-19T09:49:48;101.78;;;28.77;;
75280;SDS011;63874;47.230;39.620;2023-03-19T09:54:58;102.28;;;27.60;;
75280;SDS011;63874;47.230;39.620;2023-03-19T09:57:37;88.22;;;26.17;;
75280;SDS011;63874;47.230;39.620;2023-03-19T10:05:51;87.80;;;25.40;;
75280;SDS011;63874;47.230;39.620;2023-03-19T10:08:35;92.93;;;27.40;;
75280;SDS011;63874;47.230;39.620;2023-03-19T10:12:09;94.90;;;24.02;;
75280;SDS011;63874;47.230;39.620;2023-03-19T10:16:38;93.90;;;29.58;;
75280;SDS011;63874;47.230;39.620;2023-03-19T10:19:07;90.68;;;27.33;;
75280;SDS011;63874;47.230;39.620;2023-03-19T10:26:46;94.78;;;26.50;;
75280;SDS011;63874;47.230;39.620;2023-03-19T10:29:15;106.32;;;27.17;;
75280;SDS011;63874;47.230;39.620;2023-03-19T10:34:40;87.95;;;24.80;;
75280;SDS011;63874;47.230;39.620;2023-03-19T10:37:14;88.03;;;26.83;;
75280;SDS011;63874;47.230;39.620;2023-03-19T10:39:42;87.60;;;26.73;;
75280;SDS011;63874;47.230;39.620;2023-03-19T10:47:54;88.68;;;24.45;;
75280;SDS011;63874;47.230;39.620;2023-03-19T10:50:26;92.18;;;26.35;;
75280;SDS011;63874;47.230;39.620;2023-03-19T10:55:56;97.70;;;26.55;;
75280;SDS011;63874;47.230;39.620;2023-03-19T10:58:27;116.22;;;30.80;;
75280;SDS011;63874;47.230;39.620;2023-03-19T11:00:56;94.47;;;27.40;;
75280;SDS011;63874;47.230;39.620;2023-03-19T11:06:02;99.13;;;28.15;;
75280;SDS011;63874;47.230;39.620;2023-03-19T11:11:23;92.80;;;25.95;;
75280;SDS011;63874;47.230;39.620;2023-03-19T11:13:57;101.00;;;28.45;;
75280;SDS011;63874;47.230;39.620;2023-03-19T11:16:23;96.82;;;25.77;;
75280;SDS011;63874;47.230;39.620;2023-03-19T11:18:49;99.28;;;28.92;;
75280;SDS011;63874;47.230;39.620;2023-03-19T11:21:28;83.43;;;25.48;;
75280;SDS011;63874;47.230;39.620;2023-03-19T11:23:58;98.65;;;29.70;;
75280;SDS011;63874;47.230;39.620;2023-03-19T11:26:27;98.43;;;27.67;;
75280;SDS011;63874;47.230;39.620;2023-03-19T11:28:53;93.95;;;28.25;;
75280;SDS011;63874;47.230;39.620;2023-03-19T11:36:56;63.78;;;19.33;;
75280;SDS011;63874;47.230;39.620;2023-03-19T11:39:32;85.18;;;24.80;;
75280;SDS011;63874;47.230;39.620;2023-03-19T11:51:04;97.40;;;28.67;;
75280;SDS011;63874;47.230;39.620;2023-03-19T11:53:46;69.53;;;21.50;;
75280;SDS011;63874;47.230;39.620;2023-03-19T11:56:41;81.75;;;23.75;;
75280;SDS011;63874;47.230;39.620;2023-03-19T12:24:14;85.13;;;26.40;;
75280;SDS011;63874;47.230;39.620;2023-03-19T12:32:24;93.82;;;22.75;;
75280;SDS011;63874;47.230;39.620;2023-03-19T12:34:47;97.13;;;26.60;;
75280;SDS011;63874;47.230;39.620;2023-03-19T12:38:04;118.00;;;32.03;;
75280;SDS011;63874;47.230;39.620;2023-03-19T12:40:26;97.65;;;27.70;;
75280;SDS011;63874;47.230;39.620;2023-03-19T12:43:00;107.88;;;27.13;;
75280;SDS011;63874;47.230;39.620;2023-03-19T12:45:37;109.90;;;28.52;;
75280;SDS011;63874;47.230;39.620;2023-03-19T12:48:09;96.80;;;24.92;;
75280;SDS011;63874;47.230;39.620;2023-03-19T12:50:41;96.20;;;29.75;;
75280;SDS011;63874;47.230;39.620;2023-03-19T12:56:12;95.47;;;22.33;;
75280;SDS011;63874;47.230;39.620;2023-03-19T12:59:01;91.78;;;27.42;;
75280;SDS011;63874;47.230;39.620;2023-03-19T13:01:52;100.45;;;25.35;;
75280;SDS011;63874;47.230;39.620;2023-03-19T13:04:26;90.20;;;26.95;;
75280;SDS011;63874;47.230;39.620;2023-03-19T13:06:59;92.10;;;23.88;;
75280;SDS011;63874;47.230;39.620;2023-03-19T13:09:55;111.63;;;30.20;;
75280;SDS011;63874;47.230;39.620;2023-03-19T13:12:29;91.72;;;24.45;;
75280;SDS011;63874;47.230;39.620;2023-03-19T13:23:38;103.70;;;28.90;;
75280;SDS011;63874;47.230;39.620;2023-03-19T13:26:08;106.18;;;30.15;;
75280;SDS011;63874;47.230;39.620;2023-03-19T13:28:37;92.00;;;25.08;;
75280;SDS011;63874;47.230;39.620;2023-03-19T13:31:25;98.15;;;26.95;;
75280;SDS011;63874;47.230;39.620;2023-03-19T13:34:06;107.25;;;30.90;;
75280;SDS011;63874;47.230;39.620;2023-03-19T13:36:47;110.43;;;32.10;;
75280;SDS011;63874;47.230;39.620;2023-03-19T13:39:26;90.55;;;27.77;;
75280;SDS011;63874;47.230;39.620;2023-03-19T13:44:48;90.45;;;26.73;;
75280;SDS011;63874;47.230;39.620;2023-03-19T13:47:37;89.95;;;25.10;;
75280;SDS011;63874;47.230;39.620;2023-03-19T13:52:41;99.60;;;29.17;;
75280;SDS011;63874;47.230;39.620;2023-03-19T14:03:19;100.80;;;25.50;;
75280;SDS011;63874;47.230;39.620;2023-03-19T14:05:50;105.70;;;29.27;;
75280;SDS011;63874;47.230;39.620;2023-03-19T14:08:20;98.15;;;28.23;;
75280;SDS011;63874;47.230;39.620;2023-03-19T14:10:49;76.05;;;20.77;;
75280;SDS011;63874;47.230;39.620;2023-03-19T14:15:52;97.85;;;26.08;;
75280;SDS011;63874;47.230;39.620;2023-03-19T14:18:24;90.28;;;23.08;;
75280;SDS011;63874;47.230;39.620;2023-03-19T14:21:03;113.15;;;28.50;;
75280;SDS011;63874;47.230;39.620;2023-03-19T14:23:30;106.82;;;30.88;;
75280;SDS011;63874;47.230;39.620;2023-03-19T14:26:02;119.30;;;27.15;;
75280;SDS011;63874;47.230;39.620;2023-03-19T14:28:39;66.90;;;18.02;;
75280;SDS011;63874;47.230;39.620;2023-03-19T14:31:25;112.28;;;27.02;;
75280;SDS011;63874;47.230;39.620;2023-03-19T14:34:00;117.90;;;34.25;;
75280;SDS011;63874;47.230;39.620;2023-03-19T14:36:37;133.73;;;34.05;;
75280;SDS011;63874;47.230;39.620;2023-03-19T14:42:22;98.57;;;26.88;;
75280;SDS011;63874;47.230;39.620;2023-03-19T14:45:16;95.93;;;25.60;;
75280;SDS011;63874;47.230;39.620;2023-03-19T14:47:59;116.93;;;31.35;;
75280;SDS011;63874;47.230;39.620;2023-03-19T14:53:37;110.35;;;30.85;;
75280;SDS011;63874;47.230;39.620;2023-03-19T14:56:31;94.53;;;27.42;;
75280;SDS011;63874;47.230;39.620;2023-03-19T14:58:59;86.18;;;23.23;;
75280;SDS011;63874;47.230;39.620;2023-03-19T15:01:28;123.00;;;34.97;;
75280;SDS011;63874;47.230;39.620;2023-03-19T15:04:00;121.15;;;32.95;;
75280;SDS011;63874;47.230;39.620;2023-03-19T15:06:30;96.15;;;28.45;;
75280;SDS011;63874;47.230;39.620;2023-03-19T15:08:58;110.45;;;33.28;;
75280;SDS011;63874;47.230;39.620;2023-03-19T15:14:08;110.97;;;32.75;;
75280;SDS011;63874;47.230;39.620;2023-03-19T15:19:39;111.07;;;31.85;;
75280;SDS011;63874;47.230;39.620;2023-03-19T15:22:11;118.70;;;30.38;;
75280;SDS011;63874;47.230;39.620;2023-03-19T15:24:39;133.85;;;38.70;;
75280;SDS011;63874;47.230;39.620;2023-03-19T15:29:44;126.47;;;38.65;;
75280;SDS011;63874;47.230;39.620;2023-03-19T15:32:10;113.93;;;32.60;;
75280;SDS011;63874;47.230;39.620;2023-03-19T15:34:36;120.80;;;31.58;;
75280;SDS011;63874;47.230;39.620;2023-03-19T15:37:04;121.05;;;40.88;;
75280;SDS011;63874;47.230;39.620;2023-03-19T15:39:39;129.45;;;37.38;;
75280;SDS011;63874;47.230;39.620;2023-03-19T15:42:11;102.15;;;30.20;;
75280;SDS011;63874;47.230;39.620;2023-03-19T15:44:45;128.32;;;39.58;;
75280;SDS011;63874;47.230;39.620;2023-03-19T15:47:15;95.80;;;31.35;;
75280;SDS011;63874;47.230;39.620;2023-03-19T15:50:05;116.63;;;36.05;;
75280;SDS011;63874;47.230;39.620;2023-03-19T15:52:40;90.25;;;26.73;;
75280;SDS011;63874;47.230;39.620;2023-03-19T15:57:37;122.75;;;31.50;;
75280;SDS011;63874;47.230;39.620;2023-03-19T16:00:06;125.63;;;35.92;;
75280;SDS011;63874;47.230;39.620;2023-03-19T16:02:40;124.15;;;39.15;;
75280;SDS011;63874;47.230;39.620;2023-03-19T16:05:21;129.15;;;36.60;;
75280;SDS011;63874;47.230;39.620;2023-03-19T16:07:53;119.03;;;33.80;;
75280;SDS011;63874;47.230;39.620;2023-03-19T16:10:39;131.40;;;38.70;;
75280;SDS011;63874;47.230;39.620;2023-03-19T16:14:08;115.07;;;35.17;;
75280;SDS011;63874;47.230;39.620;2023-03-19T16:16:17;132.95;;;36.50;;
75280;SDS011;63874;47.230;39.620;2023-03-19T16:18:49;114.13;;;33.08;;
75280;SDS011;63874;47.230;39.620;2023-03-19T16:23:54;119.78;;;32.05;;
75280;SDS011;63874;47.230;39.620;2023-03-19T16:26:24;118.00;;;30.50;;
75280;SDS011;63874;47.230;39.620;2023-03-19T16:29:19;121.28;;;34.72;;
75280;SDS011;63874;47.230;39.620;2023-03-19T16:31:48;98.28;;;28.45;;
75280;SDS011;63874;47.230;39.620;2023-03-19T16:34:23;123.68;;;33.58;;
75280;SDS011;63874;47.230;39.620;2023-03-19T16:36:58;89.22;;;26.00;;
75280;SDS011;63874;47.230;39.620;2023-03-19T16:42:16;115.75;;;34.38;;
75280;SDS011;63874;47.230;39.620;2023-03-19T16:44:53;109.85;;;30.08;;
75280;SDS011;63874;47.230;39.620;2023-03-19T16:47:20;103.22;;;30.00;;
75280;SDS011;63874;47.230;39.620;2023-03-19T16:49:46;122.18;;;31.60;;